Time;durP1;ratioP1;P1;durP2;ratioP2;P2;SDS_P1;SDS_P2;PMS_P1;PMS_P2;Temp;Humidity;BMP_temperature;BMP_pressure;BME280_temperature;BME280_humidity;BME280_pressure;Samples;Min_cycle;Max_cycle;Signal;HPM_P1;HPM_P2
2021/08/03 00:02:08;;;;;;;10.05;4.32;;;14.60;99.90;;;;;;5031380;28;20554;-72
2021/08/03 00:04:44;;;;;;;7.10;4.60;;;14.70;99.90;;;;;;5029563;28;20171;-72
2021/08/03 00:07:11;;;;;;;7.93;5.03;;;14.70;99.90;;;;;;5033344;28;20025;-72
2021/08/03 00:09:40;;;;;;;8.05;5.53;;;14.70;99.90;;;;;;5031794;28;20482;-72
2021/08/03 00:12:10;;;;;;;9.43;5.00;;;14.70;99.90;;;;;;5032205;28;20882;-72
2021/08/03 00:14:36;;;;;;;8.45;4.85;;;14.70;99.90;;;;;;5031986;28;20490;-72
2021/08/03 00:17:02;;;;;;;7.25;5.05;;;14.70;99.90;;;;;;5030955;28;20037;-72
2021/08/03 00:19:27;;;;;;;7.97;5.13;;;14.70;99.90;;;;;;5030865;28;20037;-72
2021/08/03 00:21:55;;;;;;;8.02;4.70;;;14.70;99.90;;;;;;5046768;28;20095;-72
2021/08/03 00:24:26;;;;;;;8.82;4.57;;;14.70;99.90;;;;;;5048360;28;20040;-72
2021/08/03 00:26:52;;;;;;;7.78;4.80;;;14.70;99.90;;;;;;5063850;28;20103;-72
2021/08/03 00:29:17;;;;;;;6.97;5.07;;;14.70;99.90;;;;;;5030334;28;20094;-72
2021/08/03 00:31:43;;;;;;;7.70;5.03;;;14.70;99.90;;;;;;5031610;28;20029;-72
2021/08/03 00:34:09;;;;;;;7.95;5.05;;;14.70;99.90;;;;;;5047972;28;20044;-72
2021/08/03 00:36:34;;;;;;;7.50;4.78;;;14.60;99.90;;;;;;5031580;28;20044;-72
2021/08/03 00:39:00;;;;;;;9.27;4.97;;;14.60;99.90;;;;;;5049029;28;20064;-73
2021/08/03 00:41:30;;;;;;;8.55;4.68;;;14.60;99.90;;;;;;5048901;28;20029;-72
2021/08/03 00:43:56;;;;;;;11.02;4.38;;;14.70;99.90;;;;;;5031227;28;20082;-74
2021/08/03 00:46:24;;;;;;;9.27;4.53;;;14.60;99.90;;;;;;5064020;28;20036;-73
2021/08/03 00:48:57;;;;;;;8.48;4.70;;;14.70;99.90;;;;;;5048391;28;20350;-72
2021/08/03 00:51:25;;;;;;;17.38;5.18;;;14.60;99.90;;;;;;5005459;28;20103;-73
2021/08/03 00:53:53;;;;;;;10.80;4.60;;;14.60;99.90;;;;;;5048120;28;20039;-73
2021/08/03 00:56:18;;;;;;;6.75;5.00;;;14.60;99.90;;;;;;5064027;28;20036;-72
2021/08/03 00:58:44;;;;;;;8.35;5.07;;;14.60;99.90;;;;;;5004281;28;20052;-73
2021/08/03 01:01:09;;;;;;;8.88;5.03;;;14.60;99.90;;;;;;5048568;28;20044;-72
2021/08/03 01:03:35;;;;;;;8.77;4.72;;;14.60;99.90;;;;;;5062693;28;20524;-72
2021/08/03 01:06:06;;;;;;;8.52;5.15;;;14.60;99.90;;;;;;5047933;28;20029;-72
2021/08/03 01:09:01;;;;;;;7.32;4.30;;;14.60;99.90;;;;;;5047690;28;20036;-72
2021/08/03 01:11:58;;;;;;;6.70;4.70;;;14.60;99.90;;;;;;5030308;28;20024;-72
2021/08/03 01:14:31;;;;;;;7.95;5.25;;;14.60;99.90;;;;;;5047636;28;20029;-72
2021/08/03 01:17:08;;;;;;;5.93;4.63;;;14.60;99.90;;;;;;5030356;28;20033;-72
2021/08/03 01:20:00;;;;;;;9.25;5.07;;;14.60;99.90;;;;;;5063174;28;20033;-72
2021/08/03 01:22:32;;;;;;;8.38;4.53;;;14.60;99.90;;;;;;5043261;28;20036;-72
2021/08/03 01:25:14;;;;;;;11.02;4.32;;;14.60;99.90;;;;;;5046863;28;20028;-72
2021/08/03 01:27:40;;;;;;;;;;;14.60;99.90;;;;;;5048585;28;20112;-72
2021/08/03 01:30:06;;;;;;;7.55;4.72;;;14.60;99.90;;;;;;5047833;28;19919;-72
2021/08/03 01:32:33;;;;;;;6.95;4.30;;;14.60;99.90;;;;;;5047089;28;20033;-72
2021/08/03 01:34:59;;;;;;;11.02;4.57;;;14.60;99.90;;;;;;5046503;28;20033;-72
2021/08/03 01:37:28;;;;;;;6.60;4.65;;;14.60;99.90;;;;;;5030867;28;20040;-72
2021/08/03 01:39:56;;;;;;;7.45;5.00;;;14.60;99.90;;;;;;5030225;28;20032;-72
2021/08/03 01:42:25;;;;;;;7.90;5.20;;;14.60;99.90;;;;;;5046679;28;20052;-72
2021/08/03 01:44:51;;;;;;;6.65;4.32;;;14.60;99.90;;;;;;5046529;28;20136;-72
2021/08/03 01:47:17;;;;;;;6.93;4.95;;;14.60;99.90;;;;;;5047373;28;20020;-72
2021/08/03 01:49:43;;;;;;;11.63;4.07;;;14.60;99.90;;;;;;5063784;28;20446;-71
2021/08/03 01:52:13;;;;;;;7.90;4.47;;;14.70;99.90;;;;;;5063154;28;20044;-72
2021/08/03 01:54:43;;;;;;;8.90;5.00;;;14.70;99.90;;;;;;5013010;28;20052;-72
2021/08/03 01:57:12;;;;;;;8.40;5.07;;;14.60;99.90;;;;;;5029629;28;20036;-72
2021/08/03 01:59:38;;;;;;;7.78;5.15;;;14.60;99.90;;;;;;5028875;28;20484;-72
2021/08/03 02:02:08;;;;;;;7.90;4.63;;;14.70;99.90;;;;;;5030445;28;20048;-72
2021/08/03 02:04:36;;;;;;;6.30;4.22;;;14.70;99.90;;;;;;5046536;28;20033;-73
2021/08/03 02:07:05;;;;;;;6.78;4.50;;;14.70;99.90;;;;;;5046356;28;20032;-72
2021/08/03 02:09:32;;;;;;;7.53;4.82;;;14.70;99.90;;;;;;4995911;28;20037;-72
2021/08/03 02:12:00;;;;;;;12.48;4.13;;;14.70;99.90;;;;;;5046280;28;20052;-73
2021/08/03 02:14:28;;;;;;;6.90;3.72;;;14.70;99.90;;;;;;5039212;28;20119;-72
2021/08/03 02:16:58;;;;;;;7.18;4.45;;;14.70;99.90;;;;;;5046238;28;20025;-72
2021/08/03 02:19:29;;;;;;;7.60;4.90;;;14.70;99.90;;;;;;5043684;28;20028;-72
2021/08/03 02:21:54;;;;;;;5.68;4.20;;;14.70;99.90;;;;;;5029676;28;20156;-72
2021/08/03 02:24:20;;;;;;;9.40;5.10;;;14.70;99.90;;;;;;4998960;28;20029;-72
2021/08/03 02:26:46;;;;;;;6.65;4.35;;;14.70;99.90;;;;;;5028542;28;20100;-72
2021/08/03 02:29:14;;;;;;;6.47;4.60;;;14.70;99.90;;;;;;5046184;28;20025;-72
2021/08/03 02:31:43;;;;;;;8.00;4.75;;;14.70;99.90;;;;;;5030158;28;20021;-72
2021/08/03 02:34:40;;;;;;;9.43;4.47;;;14.70;99.90;;;;;;5062104;28;20029;-72
2021/08/03 02:37:12;;;;;;;7.68;4.72;;;14.60;99.90;;;;;;5042144;28;20071;-72
2021/08/03 02:39:40;;;;;;;5.78;4.03;;;14.60;99.90;;;;;;5028813;28;20025;-72
2021/08/03 02:42:10;;;;;;;6.50;4.40;;;14.60;99.90;;;;;;5012003;28;20924;-72
2021/08/03 02:44:42;;;;;;;7.55;4.50;;;14.50;99.90;;;;;;5044736;28;20047;-72
2021/08/03 02:47:25;;;;;;;6.68;4.80;;;14.50;99.90;;;;;;5050433;28;20037;-72
2021/08/03 02:49:53;;;;;;;7.90;5.30;;;14.50;99.90;;;;;;5049829;28;20043;-72
2021/08/03 02:52:20;;;;;;;6.43;4.43;;;14.50;99.90;;;;;;5047209;28;20490;-72
2021/08/03 02:54:58;;;;;;;9.15;5.28;;;14.40;99.90;;;;;;5036682;28;20040;-72
2021/08/03 02:57:29;;;;;;;6.35;4.57;;;14.40;99.90;;;;;;5034905;28;20151;-72
2021/08/03 02:59:58;;;;;;;8.52;4.32;;;14.40;99.90;;;;;;5065523;28;20044;-72
2021/08/03 03:02:26;;;;;;;7.70;4.53;;;14.30;99.90;;;;;;5051303;28;20485;-73
2021/08/03 03:05:00;;;;;;;7.80;5.07;;;14.30;99.90;;;;;;5049496;28;20044;-72
2021/08/03 03:07:35;;;;;;;9.07;5.60;;;14.30;99.90;;;;;;5033755;28;20029;-73
2021/08/03 03:10:02;;;;;;;10.95;4.97;;;14.20;99.90;;;;;;5034618;28;20125;-73
2021/08/03 03:12:32;;;;;;;8.43;5.18;;;14.20;99.90;;;;;;5033486;28;20040;-73
2021/08/03 03:14:59;;;;;;;8.00;5.70;;;14.20;99.90;;;;;;5017646;28;20562;-72
2021/08/03 03:17:25;;;;;;;10.02;6.05;;;14.20;99.90;;;;;;5032703;28;21977;-72
2021/08/03 03:19:51;;;;;;;9.18;5.72;;;14.20;99.90;;;;;;5065654;28;20048;-72
2021/08/03 03:22:16;;;;;;;8.55;5.63;;;14.10;99.90;;;;;;5049912;28;20553;-72
2021/08/03 03:24:42;;;;;;;8.25;5.50;;;14.10;99.90;;;;;;5032239;28;20048;-72
2021/08/03 03:27:12;;;;;;;8.80;5.13;;;14.10;99.90;;;;;;5066781;28;20029;-72
2021/08/03 03:29:39;;;;;;;10.27;6.13;;;14.10;99.90;;;;;;5015136;28;20343;-72
2021/08/03 03:32:07;;;;;;;9.02;6.53;;;14.00;99.90;;;;;;5049169;28;20512;-72
2021/08/03 03:34:33;;;;;;;11.27;6.15;;;14.00;99.90;;;;;;5065253;28;20061;-72
2021/08/03 03:37:01;;;;;;;9.65;6.30;;;14.00;99.90;;;;;;5065532;28;20518;-71
2021/08/03 03:39:27;;;;;;;9.07;6.70;;;14.10;99.90;;;;;;5063958;28;20029;-72
2021/08/03 03:41:54;;;;;;;10.02;7.03;;;14.00;99.90;;;;;;5047888;28;20101;-72
2021/08/03 03:44:20;;;;;;;10.65;6.57;;;14.00;99.90;;;;;;5020552;28;20044;-72
2021/08/03 03:47:01;;;;;;;9.88;6.40;;;14.00;99.90;;;;;;5049773;28;20358;-72
2021/08/03 03:49:33;;;;;;;10.65;6.75;;;14.00;99.90;;;;;;5064955;28;20071;-72
2021/08/03 03:52:00;;;;;;;8.80;6.68;;;14.00;99.90;;;;;;5065539;28;20044;-72
2021/08/03 03:54:29;;;;;;;8.65;6.13;;;13.90;99.90;;;;;;5048376;28;20071;-72
2021/08/03 03:56:59;;;;;;;8.55;5.85;;;13.90;99.90;;;;;;5032257;28;20326;-72
2021/08/03 03:59:24;;;;;;;9.43;6.20;;;14.00;99.90;;;;;;4981654;28;20052;-72
2021/08/03 04:01:51;;;;;;;8.93;6.25;;;14.00;99.90;;;;;;5016986;28;20735;-72
2021/08/03 04:04:19;;;;;;;10.70;6.47;;;14.00;99.90;;;;;;5044345;28;20457;-72
2021/08/03 04:06:47;;;;;;;9.88;6.30;;;14.00;99.90;;;;;;5009346;28;20029;-72
2021/08/03 04:09:23;;;;;;;8.40;6.10;;;14.00;99.90;;;;;;5011586;28;20039;-72
2021/08/03 04:11:51;;;;;;;8.35;5.93;;;14.00;99.90;;;;;;5028667;28;20677;-72
2021/08/03 04:14:23;;;;;;;8.40;6.10;;;14.00;99.90;;;;;;5015467;28;20028;-72
2021/08/03 04:16:51;;;;;;;8.93;6.68;;;14.10;99.90;;;;;;5043980;28;20048;-72
2021/08/03 04:19:17;;;;;;;7.65;5.72;;;14.00;99.90;;;;;;5044314;28;20128;-72
2021/08/03 04:21:45;;;;;;;12.13;6.32;;;14.10;99.90;;;;;;5029032;28;20037;-72
2021/08/03 04:24:13;;;;;;;8.45;5.50;;;14.10;99.90;;;;;;5028813;28;20037;-72
2021/08/03 04:26:39;;;;;;;8.68;5.95;;;14.10;99.90;;;;;;5026063;28;20026;-72
2021/08/03 04:29:10;;;;;;;10.27;5.72;;;14.10;99.90;;;;;;5028781;28;20037;-72
2021/08/03 04:31:38;;;;;;;7.80;5.15;;;14.20;99.90;;;;;;5028113;28;20029;-72
2021/08/03 04:34:03;;;;;;;8.52;5.75;;;14.20;99.90;;;;;;5042882;28;20045;-72
2021/08/03 04:36:29;;;;;;;8.65;5.70;;;14.20;99.90;;;;;;5027000;28;20044;-72
2021/08/03 04:38:55;;;;;;;8.50;5.90;;;14.30;99.90;;;;;;5027767;28;20461;-72
2021/08/03 04:41:22;;;;;;;9.70;6.30;;;14.20;99.90;;;;;;5028340;28;20111;-72
2021/08/03 04:43:48;;;;;;;7.97;5.40;;;14.30;99.90;;;;;;5029042;28;20068;-72
2021/08/03 04:46:16;;;;;;;8.13;6.00;;;14.30;99.90;;;;;;5013973;28;20453;-70
2021/08/03 04:48:42;;;;;;;8.90;5.88;;;14.30;99.90;;;;;;5027525;28;20022;-71
2021/08/03 04:51:07;;;;;;;8.35;5.70;;;14.30;99.90;;;;;;5027392;28;20478;-70
2021/08/03 04:53:33;;;;;;;8.13;5.55;;;14.40;99.90;;;;;;5027822;28;20053;-70
2021/08/03 04:56:01;;;;;;;8.25;5.65;;;14.50;99.90;;;;;;5028366;28;20044;-70
2021/08/03 04:58:29;;;;;;;6.80;5.03;;;14.50;99.90;;;;;;5035533;28;20045;-71
2021/08/03 05:00:57;;;;;;;7.72;5.63;;;14.50;99.90;;;;;;5064117;28;20028;-70
2021/08/03 05:03:22;;;;;;;9.20;5.53;;;14.50;99.90;;;;;;5051035;28;20028;-71
2021/08/03 05:05:48;;;;;;;9.43;5.85;;;14.50;99.90;;;;;;5046941;28;20031;-71
2021/08/03 05:08:13;;;;;;;8.10;5.32;;;14.50;99.90;;;;;;5047896;28;20021;-71
2021/08/03 05:10:46;;;;;;;11.40;6.28;;;14.60;99.90;;;;;;5034152;28;20035;-70
2021/08/03 05:13:14;;;;;;;9.85;6.80;;;14.60;99.90;;;;;;5049164;28;20446;-71
2021/08/03 05:15:40;;;;;;;10.50;6.80;;;14.60;99.90;;;;;;5047858;28;20076;-71
2021/08/03 05:18:05;;;;;;;9.00;6.22;;;14.60;99.90;;;;;;5047125;28;20037;-71
2021/08/03 05:20:31;;;;;;;10.68;7.55;;;14.70;99.90;;;;;;5047854;28;20033;-71
2021/08/03 05:22:57;;;;;;;10.68;7.88;;;14.70;99.90;;;;;;5014056;28;20115;-71
2021/08/03 05:25:25;;;;;;;10.18;8.38;;;14.80;99.90;;;;;;5047634;28;20033;-71
2021/08/03 05:27:53;;;;;;;13.45;9.38;;;14.80;99.90;;;;;;5029235;28;20048;-70
2021/08/03 05:30:19;;;;;;;14.13;9.65;;;14.80;99.90;;;;;;5063188;28;20051;-70
2021/08/03 05:32:47;;;;;;;17.10;11.15;;;14.80;99.90;;;;;;5063634;28;20033;-70
2021/08/03 05:35:13;;;;;;;22.35;11.73;;;14.90;99.90;;;;;;5014984;28;20374;-70
2021/08/03 05:37:39;;;;;;;20.15;12.43;;;14.90;99.90;;;;;;5047886;28;20033;-70
2021/08/03 05:40:08;;;;;;;20.92;11.70;;;15.00;99.90;;;;;;5046987;28;20082;-70
2021/08/03 05:42:37;;;;;;;21.48;12.05;;;14.90;99.90;;;;;;5046272;28;20025;-70
2021/08/03 05:45:03;;;;;;;22.38;12.20;;;15.00;99.90;;;;;;5047490;28;20598;-71
2021/08/03 05:47:31;;;;;;;31.27;14.95;;;15.00;99.90;;;;;;5047238;28;20047;-70
2021/08/03 05:49:59;;;;;;;28.63;15.15;;;15.10;99.90;;;;;;5046587;28;20154;-71
2021/08/03 05:52:25;;;;;;;31.75;15.45;;;15.10;99.90;;;;;;5048452;28;21607;-71
2021/08/03 05:54:53;;;;;;;34.38;17.45;;;15.10;99.90;;;;;;5046956;28;20024;-73
2021/08/03 05:57:18;;;;;;;38.42;18.33;;;15.10;99.90;;;;;;5029097;28;20036;-71
2021/08/03 05:59:46;;;;;;;35.35;17.15;;;15.10;99.90;;;;;;5048409;28;20082;-70
2021/08/03 06:02:12;;;;;;;26.90;14.60;;;15.10;99.90;;;;;;5047254;28;20037;-71
2021/08/03 06:04:37;;;;;;;29.50;15.77;;;15.20;99.90;;;;;;5046523;28;20118;-71
2021/08/03 06:07:06;;;;;;;30.55;15.63;;;15.20;99.90;;;;;;5046811;28;20041;-71
2021/08/03 06:09:32;;;;;;;34.90;18.73;;;15.30;99.90;;;;;;5017902;28;20025;-70
2021/08/03 06:11:58;;;;;;;30.83;16.48;;;15.20;99.90;;;;;;5045547;28;20056;-70
2021/08/03 06:14:43;;;;;;;36.60;19.02;;;15.20;99.90;;;;;;5045783;28;20033;-70
2021/08/03 06:17:10;;;;;;;33.75;16.17;;;15.20;99.90;;;;;;5046568;28;20059;-70
2021/08/03 06:19:46;;;;;;;32.90;16.63;;;15.20;99.90;;;;;;5046874;28;20036;-70
2021/08/03 06:22:16;;;;;;;33.92;17.63;;;15.30;99.90;;;;;;5029280;28;20032;-70
2021/08/03 06:24:42;;;;;;;33.42;17.42;;;15.30;99.90;;;;;;5044553;28;20029;-70
2021/08/03 06:27:09;;;;;;;28.02;15.43;;;15.40;99.90;;;;;;5046202;28;20457;-70
2021/08/03 06:29:38;;;;;;;31.52;15.98;;;15.40;99.90;;;;;;5027294;28;20513;-68
2021/08/03 06:32:06;;;;;;;46.70;18.73;;;15.40;99.90;;;;;;5061181;28;20028;-68
2021/08/03 06:34:37;;;;;;;39.22;20.45;;;15.50;99.90;;;;;;5043532;28;20056;-67
2021/08/03 06:37:03;;;;;;;40.25;20.80;;;15.50;99.90;;;;;;5045200;28;20669;-71
2021/08/03 06:39:31;;;;;;;36.60;19.13;;;15.50;99.90;;;;;;5044830;28;20033;-71
2021/08/03 06:42:01;;;;;;;33.75;18.80;;;15.50;99.90;;;;;;5044632;28;20057;-71
2021/08/03 06:44:33;;;;;;;40.35;21.38;;;15.50;99.90;;;;;;5027228;28;20066;-68
2021/08/03 06:46:58;;;;;;;43.50;22.58;;;15.50;99.90;;;;;;5018436;28;20035;-68
2021/08/03 06:49:24;;;;;;;54.40;21.52;;;15.50;99.90;;;;;;5026406;28;20071;-68
2021/08/03 06:51:58;;;;;;;47.28;20.25;;;15.60;99.90;;;;;;5027968;28;20358;-71
2021/08/03 06:54:26;;;;;;;37.90;21.85;;;15.70;99.90;;;;;;5025923;28;20087;-71
2021/08/03 06:56:55;;;;;;;35.75;20.38;;;15.80;99.90;;;;;;5028446;28;20178;-71
2021/08/03 06:59:29;;;;;;;44.55;21.10;;;15.90;99.90;;;;;;5025006;28;20083;-71
2021/08/03 07:02:08;;;;;;;42.35;22.40;;;15.90;99.90;;;;;;5060440;28;20029;-71
2021/08/03 07:05:02;;;;;;;39.20;21.17;;;16.00;99.90;;;;;;5027507;28;20628;-71
2021/08/03 07:07:30;;;;;;;37.88;21.02;;;16.00;99.90;;;;;;5025736;28;20083;-72
2021/08/03 07:09:56;;;;;;;34.45;20.15;;;16.10;99.90;;;;;;5026717;28;20044;-71
2021/08/03 07:12:22;;;;;;;38.90;19.83;;;16.10;99.90;;;;;;5029490;28;20021;-71
2021/08/03 07:14:48;;;;;;;36.17;21.45;;;16.10;99.90;;;;;;5044493;28;20112;-72
2021/08/03 07:17:16;;;;;;;35.72;20.75;;;16.10;99.90;;;;;;5026604;28;20167;-72
2021/08/03 07:19:42;;;;;;;36.78;19.35;;;16.20;99.90;;;;;;5027212;28;20434;-72
2021/08/03 07:22:08;;;;;;;38.58;23.80;;;16.20;99.90;;;;;;5026593;28;20136;-71
2021/08/03 07:24:34;;;;;;;36.45;20.48;;;16.20;99.90;;;;;;5027927;28;20032;-72
2021/08/03 07:27:00;;;;;;;37.67;25.10;;;16.20;99.90;;;;;;5026335;28;20051;-68
2021/08/03 07:29:28;;;;;;;45.45;25.15;;;16.10;99.90;;;;;;5043169;28;20029;-68
2021/08/03 07:31:53;;;;;;;37.78;25.60;;;16.20;99.90;;;;;;5046496;28;20056;-68
2021/08/03 07:34:19;;;;;;;37.28;28.42;;;16.00;99.90;;;;;;5030275;28;20495;-72
2021/08/03 07:36:45;;;;;;;34.25;26.92;;;16.10;99.90;;;;;;5047308;28;20037;-72
2021/08/03 07:39:13;;;;;;;40.97;28.55;;;16.10;99.90;;;;;;5013949;28;20043;-72
2021/08/03 07:41:38;;;;;;;35.70;27.48;;;16.10;99.90;;;;;;5031109;28;20545;-72
2021/08/03 07:44:05;;;;;;;32.50;27.67;;;16.10;99.90;;;;;;5047320;28;20262;-72
2021/08/03 07:46:34;;;;;;;34.45;25.90;;;16.10;99.90;;;;;;5031050;28;20098;-72
2021/08/03 07:49:03;;;;;;;31.90;25.77;;;16.10;99.90;;;;;;5014596;28;20055;-72
2021/08/03 07:51:32;;;;;;;29.58;24.58;;;16.20;99.90;;;;;;5030669;28;20023;-72
2021/08/03 07:53:57;;;;;;;32.85;25.50;;;16.20;99.90;;;;;;5030499;28;20167;-72
2021/08/03 07:56:23;;;;;;;32.22;25.45;;;16.30;99.90;;;;;;5048185;28;20107;-73
2021/08/03 07:58:49;;;;;;;31.13;26.70;;;16.40;99.90;;;;;;5047953;28;20049;-72
2021/08/03 08:01:17;;;;;;;32.67;27.42;;;16.40;99.90;;;;;;5027342;28;20382;-72
2021/08/03 08:03:43;;;;;;;34.90;28.55;;;16.30;99.90;;;;;;5047003;28;20060;-72
2021/08/03 08:06:11;;;;;;;34.08;27.83;;;16.40;99.90;;;;;;5047490;28;20560;-72
2021/08/03 08:08:36;;;;;;;33.95;28.08;;;16.40;99.90;;;;;;5031702;28;20890;-72
2021/08/03 08:11:04;;;;;;;27.50;24.58;;;16.40;99.90;;;;;;5047048;28;20029;-72
2021/08/03 08:13:30;;;;;;;29.52;24.73;;;16.50;99.90;;;;;;5014614;28;20064;-72
2021/08/03 08:15:56;;;;;;;31.08;25.52;;;16.50;99.90;;;;;;5029633;28;20446;-72
2021/08/03 08:18:24;;;;;;;28.80;25.80;;;16.60;99.90;;;;;;5047381;28;20071;-71
2021/08/03 08:20:49;;;;;;;32.90;26.75;;;16.60;99.90;;;;;;5035208;28;20083;-71
2021/08/03 08:23:20;;;;;;;27.75;24.85;;;16.70;99.90;;;;;;5029446;28;20039;-71
2021/08/03 08:25:45;;;;;;;26.40;22.75;;;16.80;99.90;;;;;;5047545;28;20469;-72
2021/08/03 08:28:11;;;;;;;22.30;20.00;;;16.80;99.90;;;;;;5029819;28;20251;-72
2021/08/03 08:30:38;;;;;;;23.92;21.42;;;16.90;99.90;;;;;;5029179;28;20028;-72
2021/08/03 08:33:03;;;;;;;22.13;19.80;;;16.90;99.90;;;;;;5046728;28;20024;-72
2021/08/03 08:35:32;;;;;;;23.25;20.75;;;16.90;99.90;;;;;;5028668;28;20716;-73
2021/08/03 08:37:58;;;;;;;26.15;21.98;;;16.80;99.90;;;;;;5047081;28;20120;-74
2021/08/03 08:40:28;;;;;;;25.85;20.88;;;16.80;99.90;;;;;;5046445;28;20032;-69
2021/08/03 08:42:54;;;;;;;25.02;20.02;;;16.70;99.90;;;;;;5046590;28;20040;-68
2021/08/03 08:45:22;;;;;;;30.85;22.17;;;16.70;99.90;;;;;;5029575;28;20056;-72
2021/08/03 08:47:48;;;;;;;25.10;20.98;;;16.70;99.90;;;;;;5046679;28;20025;-70
2021/08/03 08:50:15;;;;;;;25.65;21.13;;;16.60;99.90;;;;;;5013666;28;20031;-71
2021/08/03 08:52:41;;;;;;;22.65;20.23;;;16.60;99.90;;;;;;5047738;28;20040;-71
2021/08/03 08:55:08;;;;;;;29.92;23.88;;;16.60;99.90;;;;;;5028940;28;20036;-71
2021/08/03 08:57:34;;;;;;;23.20;19.98;;;16.60;99.90;;;;;;5028998;28;20171;-71
2021/08/03 09:00:03;;;;;;;20.55;18.42;;;16.70;99.90;;;;;;5047599;28;20056;-71
2021/08/03 09:02:42;;;;;;;19.35;17.27;;;16.60;99.90;;;;;;5048028;28;20032;-72
2021/08/03 09:05:12;;;;;;;17.80;15.93;;;16.80;99.90;;;;;;5013510;28;20581;-73
2021/08/03 09:07:51;;;;;;;17.70;15.80;;;16.90;99.90;;;;;;5019589;28;20460;-73
2021/08/03 09:10:34;;;;;;;18.50;16.60;;;16.90;99.90;;;;;;5027296;28;20032;-72
2021/08/03 09:13:11;;;;;;;17.48;15.73;;;16.80;99.90;;;;;;5026390;28;20125;-72
2021/08/03 09:15:38;;;;;;;18.98;17.08;;;16.80;99.90;;;;;;5046500;28;20025;-72
2021/08/03 09:18:30;;;;;;;18.38;16.50;;;16.80;99.90;;;;;;5028204;28;21924;-72
2021/08/03 09:20:55;;;;;;;18.33;16.45;;;16.80;99.90;;;;;;5027509;28;20091;-72
2021/08/03 09:23:41;;;;;;;18.25;16.35;;;16.80;99.90;;;;;;5046319;28;20510;-73
2021/08/03 09:26:12;;;;;;;17.85;16.05;;;16.90;99.90;;;;;;5061839;28;20635;-72
2021/08/03 09:28:56;;;;;;;19.83;16.70;;;16.80;99.90;;;;;;5029199;28;20757;-73
2021/08/03 09:31:24;;;;;;;20.23;17.63;;;16.70;99.90;;;;;;5045014;28;20066;-73
2021/08/03 09:33:52;;;;;;;20.08;17.73;;;16.70;99.90;;;;;;5061459;28;20048;-72
2021/08/03 09:36:38;;;;;;;23.85;19.73;;;16.70;99.90;;;;;;5045403;28;20051;-73
2021/08/03 09:39:06;;;;;;;21.30;17.65;;;16.70;99.90;;;;;;5031081;28;20032;-73
2021/08/03 09:41:49;;;;;;;18.42;16.52;;;16.60;99.90;;;;;;5029137;28;20025;-73
2021/08/03 09:44:16;;;;;;;24.45;18.75;;;16.60;99.90;;;;;;5044041;28;20037;-73
2021/08/03 09:46:44;;;;;;;20.52;17.52;;;16.70;99.90;;;;;;5046615;28;20729;-73
2021/08/03 09:49:10;;;;;;;20.38;17.50;;;16.70;99.90;;;;;;5044412;28;20037;-73
2021/08/03 09:51:35;;;;;;;20.13;17.13;;;16.60;99.90;;;;;;5027880;28;20630;-73
2021/08/03 09:54:03;;;;;;;24.48;18.85;;;16.60;99.90;;;;;;5011667;28;20032;-69
2021/08/03 09:56:29;;;;;;;24.58;18.23;;;16.70;99.90;;;;;;5000902;28;20136;-69
2021/08/03 09:59:04;;;;;;;23.70;19.08;;;16.60;99.90;;;;;;5045712;28;20057;-73
2021/08/03 10:01:38;;;;;;;22.55;18.30;;;16.70;99.90;;;;;;5060782;28;20036;-71
2021/08/03 10:04:06;;;;;;;23.00;16.02;;;16.70;99.90;;;;;;5028968;28;20028;-72
2021/08/03 10:06:32;;;;;;;19.65;16.27;;;16.70;99.90;;;;;;5011681;28;20021;-73
2021/08/03 10:09:00;;;;;;;22.35;17.13;;;16.70;99.90;;;;;;5045997;28;20079;-72
2021/08/03 10:11:26;;;;;;;19.63;15.73;;;16.80;99.90;;;;;;5027474;28;20120;-82
2021/08/03 10:13:52;;;;;;;21.23;17.52;;;16.80;99.90;;;;;;5026465;28;20127;-75
2021/08/03 10:16:18;;;;;;;21.23;15.95;;;16.80;99.90;;;;;;5044964;28;20452;-73
2021/08/03 10:18:50;;;;;;;19.60;16.02;;;16.80;99.90;;;;;;5026538;28;20468;-72
2021/08/03 10:21:33;;;;;;;20.50;15.00;;;16.80;99.90;;;;;;5060741;28;20033;-72
2021/08/03 10:24:21;;;;;;;19.38;15.68;;;16.70;99.90;;;;;;5046071;28;20041;-72
2021/08/03 10:27:05;;;;;;;16.90;13.32;;;16.80;99.90;;;;;;5028685;28;20028;-69
2021/08/03 10:29:32;;;;;;;13.75;11.20;;;16.80;99.90;;;;;;5045222;28;20112;-69
2021/08/03 10:31:57;;;;;;;14.48;10.52;;;16.80;99.90;;;;;;5059723;28;20025;-72
2021/08/03 10:34:42;;;;;;;11.95;10.20;;;16.80;99.90;;;;;;5028015;28;20043;-71
2021/08/03 10:37:11;;;;;;;13.23;9.68;;;16.80;99.90;;;;;;5061644;28;20131;-71
2021/08/03 10:39:53;;;;;;;9.20;7.05;;;16.60;99.90;;;;;;5044630;28;20036;-71
2021/08/03 10:42:19;;;;;;;;;;;16.40;99.90;;;;;;4996631;28;20570;-72
2021/08/03 10:44:57;;;;;;;12.38;7.80;;;16.40;99.90;;;;;;5044665;28;19920;-72
2021/08/03 10:47:33;;;;;;;9.18;6.68;;;16.40;99.90;;;;;;5045149;28;20031;-72
2021/08/03 10:50:02;;;;;;;8.73;7.32;;;16.30;99.90;;;;;;5045396;28;20034;-72
2021/08/03 10:52:48;;;;;;;8.75;6.80;;;16.20;99.90;;;;;;5029210;28;20039;-73
2021/08/03 10:55:31;;;;;;;10.88;7.63;;;16.20;99.90;;;;;;5045084;28;20037;-73
2021/08/03 10:58:36;;;;;;;10.25;6.88;;;16.30;99.90;;;;;;5044945;28;20065;-74
2021/08/03 11:01:56;;;;;;;8.45;6.30;;;16.30;99.90;;;;;;5024671;28;20112;-74
2021/08/03 11:04:49;;;;;;;8.95;7.07;;;16.20;99.90;;;;;;5033479;28;20037;-72
2021/08/03 11:07:27;;;;;;;7.18;6.05;;;16.40;99.90;;;;;;5028406;28;20813;-73
2021/08/03 11:10:00;;;;;;;6.80;5.20;;;16.40;99.90;;;;;;5008808;28;20059;-73
2021/08/03 11:12:47;;;;;;;7.70;5.50;;;16.40;99.90;;;;;;5025054;28;20023;-74
2021/08/03 11:15:28;;;;;;;8.02;5.90;;;16.60;99.90;;;;;;5010806;28;20039;-73
2021/08/03 11:17:57;;;;;;;5.93;3.90;;;16.70;99.90;;;;;;5029189;28;20033;-75
2021/08/03 11:20:35;;;;;;;7.53;4.28;;;16.60;99.90;;;;;;4991866;28;20025;-75
2021/08/03 11:23:14;;;;;;;5.57;3.65;;;16.80;99.90;;;;;;5043522;28;20036;-74
2021/08/03 11:26:07;;;;;;;4.30;2.85;;;16.90;99.90;;;;;;5028110;28;20029;-74
2021/08/03 11:28:45;;;;;;;5.38;2.80;;;16.90;99.90;;;;;;5004964;28;20473;-74
2021/08/03 11:31:11;;;;;;;4.10;2.42;;;17.00;99.90;;;;;;5026007;28;20040;-72
2021/08/03 11:33:43;;;;;;;4.60;2.60;;;17.00;99.90;;;;;;5043199;28;20121;-74
2021/08/03 11:36:09;;;;;;;5.80;2.72;;;16.90;99.90;;;;;;4992825;28;20470;-73
2021/08/03 11:38:35;;;;;;;4.22;2.50;;;16.90;99.90;;;;;;5028132;28;20037;-74
2021/08/03 11:41:13;;;;;;;4.32;2.63;;;16.80;99.90;;;;;;5010236;28;20044;-76
2021/08/03 11:43:52;;;;;;;4.43;2.45;;;16.80;99.90;;;;;;5008704;28;20032;-74
2021/08/03 11:46:51;;;;;;;4.10;2.28;;;16.80;99.90;;;;;;5011266;28;20017;-74
2021/08/03 11:49:33;;;;;;;4.50;2.78;;;16.90;99.90;;;;;;5024853;28;20079;-74
2021/08/03 11:52:16;;;;;;;4.10;2.50;;;16.90;99.90;;;;;;4996644;28;20029;-74
2021/08/03 11:54:44;;;;;;;3.63;2.53;;;17.00;99.90;;;;;;5042799;28;20091;-74
2021/08/03 11:57:51;;;;;;;4.43;2.72;;;17.00;99.90;;;;;;5026594;28;20468;-74
2021/08/03 12:00:53;;;;;;;4.45;2.45;;;17.00;99.90;;;;;;4982001;28;20613;-74
2021/08/03 12:03:35;;;;;;;4.68;2.58;;;17.00;99.90;;;;;;5017153;28;20029;-74
2021/08/03 12:06:19;;;;;;;4.20;2.60;;;17.10;99.90;;;;;;5012223;28;20025;-74
2021/08/03 12:08:51;;;;;;;4.53;2.50;;;16.90;99.90;;;;;;5029259;28;20028;-73
2021/08/03 12:11:26;;;;;;;5.10;3.10;;;17.00;99.90;;;;;;5029743;28;20532;-74
2021/08/03 12:14:15;;;;;;;4.28;2.70;;;17.00;99.90;;;;;;5046756;28;20127;-73
2021/08/03 12:16:58;;;;;;;5.00;3.05;;;17.10;99.90;;;;;;5030234;28;20037;-73
2021/08/03 12:19:42;;;;;;;5.05;3.30;;;16.90;99.90;;;;;;5015023;28;20037;-73
2021/08/03 12:22:24;;;;;;;6.18;3.33;;;17.20;99.90;;;;;;5031131;28;20040;-73
2021/08/03 12:24:59;;;;;;;4.55;3.17;;;17.30;99.90;;;;;;5047402;28;20040;-72
2021/08/03 12:27:27;;;;;;;5.30;2.97;;;17.30;99.90;;;;;;5034919;28;20036;-72
2021/08/03 12:29:53;;;;;;;4.05;2.80;;;17.30;99.90;;;;;;5047808;28;20029;-72
2021/08/03 12:32:40;;;;;;;6.05;3.53;;;17.50;99.90;;;;;;5014078;28;20331;-73
2021/08/03 12:35:13;;;;;;;4.65;3.13;;;17.40;99.90;;;;;;5045312;28;20378;-72
2021/08/03 12:37:41;;;;;;;5.75;3.22;;;17.40;99.90;;;;;;5047861;28;20029;-72
2021/08/03 12:40:27;;;;;;;5.40;3.42;;;17.40;99.90;;;;;;5047418;28;20059;-72
2021/08/03 12:42:56;;;;;;;4.50;2.90;;;17.50;99.90;;;;;;5029563;28;20033;-72
2021/08/03 12:45:24;;;;;;;5.55;3.25;;;17.50;99.90;;;;;;5046805;28;20128;-72
2021/08/03 12:48:01;;;;;;;4.78;3.47;;;17.40;99.90;;;;;;5047441;28;20029;-70
2021/08/03 12:50:27;;;;;;;7.95;5.00;;;17.50;99.90;;;;;;5046975;28;20048;-69
2021/08/03 12:52:54;;;;;;;7.38;4.15;;;17.50;99.90;;;;;;5029057;28;20025;-72
2021/08/03 12:55:41;;;;;;;5.38;3.05;;;17.50;99.90;;;;;;5047820;28;20426;-73
2021/08/03 12:58:08;;;;;;;5.68;2.90;;;17.60;99.90;;;;;;5030592;28;20032;-73